createdAt,value
2023-05-14T00:00:58.840Z,14.40
2023-05-14T00:03:34.283Z,13.93
2023-05-14T00:06:07.023Z,14.95
2023-05-14T00:08:43.149Z,18.70
2023-05-14T00:11:17.943Z,17.27
2023-05-14T00:13:53.853Z,14.07
2023-05-14T00:16:28.861Z,14.88
2023-05-14T00:19:02.832Z,15.98
2023-05-14T00:21:37.655Z,15.52
2023-05-14T00:24:16.155Z,17.40
2023-05-14T00:26:50.878Z,14.65
2023-05-14T00:35:59.576Z,14.20
2023-05-14T00:38:34.921Z,15.15
2023-05-14T00:41:13.521Z,16.63
2023-05-14T00:43:46.279Z,17.58
2023-05-14T00:46:20.018Z,12.82
2023-05-14T00:49:06.939Z,16.38
2023-05-14T00:51:41.857Z,17.23
2023-05-14T00:54:53.040Z,14.40
2023-05-14T00:57:31.217Z,13.02
2023-05-14T01:00:11.086Z,14.98
2023-05-14T01:02:45.542Z,13.57
2023-05-14T01:05:21.395Z,13.27
2023-05-14T01:08:05.836Z,14.75
2023-05-14T01:10:58.283Z,15.70
2023-05-14T01:13:41.638Z,15.60
2023-05-14T01:16:17.359Z,15.25
2023-05-14T01:18:55.793Z,13.68
2023-05-14T01:21:41.339Z,14.95
2023-05-14T01:24:16.173Z,18.75
2023-05-14T01:26:53.274Z,13.30
2023-05-14T01:30:09.663Z,13.25
2023-05-14T01:33:11.557Z,13.95
2023-05-14T01:35:45.017Z,14.85
2023-05-14T01:38:25.861Z,15.05
2023-05-14T01:41:05.185Z,14.30
2023-05-14T01:43:48.373Z,14.48
2023-05-14T01:46:25.947Z,13.93
2023-05-14T01:49:00.977Z,15.05
2023-05-14T01:51:33.596Z,14.43
2023-05-14T01:54:10.912Z,13.13
2023-05-14T01:56:43.230Z,12.75
2023-05-14T01:59:16.305Z,12.63
2023-05-14T02:01:48.446Z,13.48
2023-05-14T02:04:22.413Z,13.00
2023-05-14T02:06:57.216Z,11.73
2023-05-14T02:09:32.733Z,12.05
2023-05-14T02:12:04.810Z,12.98
2023-05-14T02:14:38.980Z,10.93
2023-05-14T02:17:13.248Z,13.55
2023-05-14T02:19:46.793Z,12.65
2023-05-14T02:22:18.896Z,12.15
2023-05-14T02:24:54.441Z,12.63
2023-05-14T02:27:26.532Z,10.15
2023-05-14T02:30:09.811Z,14.43
2023-05-14T02:32:45.363Z,12.13
2023-05-14T02:35:18.137Z,13.57
2023-05-14T02:37:50.284Z,10.85
2023-05-14T02:40:25.634Z,12.20
2023-05-14T02:42:57.655Z,16.45
2023-05-14T02:45:30.231Z,12.65
2023-05-14T02:48:06.711Z,13.80
2023-05-14T02:50:39.301Z,9.82
2023-05-14T02:53:11.414Z,16.40
2023-05-14T02:55:47.154Z,11.82
2023-05-14T02:58:20.413Z,11.57
2023-05-14T03:01:03.228Z,9.38
2023-05-14T03:03:35.798Z,13.07
2023-05-14T03:06:08.878Z,16.02
2023-05-14T03:08:40.916Z,11.93
2023-05-14T03:11:16.098Z,11.00
2023-05-14T03:13:48.074Z,13.85
2023-05-14T03:16:21.830Z,15.02
2023-05-14T03:18:54.135Z,12.27
2023-05-14T03:21:26.681Z,11.38
2023-05-14T03:23:58.569Z,10.55
2023-05-14T03:26:34.264Z,10.32
2023-05-14T03:29:07.193Z,9.90
2023-05-14T03:31:42.799Z,12.75
2023-05-14T03:34:14.808Z,11.50
2023-05-14T03:36:47.135Z,11.38
2023-05-14T03:39:22.484Z,11.15
2023-05-14T03:41:57.617Z,10.68
2023-05-14T03:44:41.075Z,16.17
2023-05-14T03:47:16.420Z,14.52
2023-05-14T03:49:48.813Z,15.15
2023-05-14T03:52:24.008Z,10.60
2023-05-14T03:54:56.283Z,12.40
2023-05-14T03:57:37.162Z,10.70
2023-05-14T04:00:21.969Z,9.27
2023-05-14T04:02:56.007Z,9.98
2023-05-14T04:05:29.197Z,12.30
2023-05-14T04:08:02.480Z,10.70
2023-05-14T04:10:36.765Z,11.45
2023-05-14T04:13:13.403Z,11.95
2023-05-14T04:15:47.123Z,12.63
2023-05-14T04:18:19.563Z,12.68
2023-05-14T04:20:51.433Z,10.10
2023-05-14T04:23:25.082Z,11.32
2023-05-14T04:25:57.135Z,11.43
2023-05-14T04:28:37.363Z,8.07
2023-05-14T04:31:09.477Z,13.43
2023-05-14T04:33:42.280Z,9.93
2023-05-14T04:36:14.390Z,14.65
2023-05-14T04:38:54.945Z,8.02
2023-05-14T04:41:27.072Z,11.45
2023-05-14T04:44:04.127Z,10.93
2023-05-14T04:46:36.215Z,12.65
2023-05-14T04:49:08.748Z,11.65
2023-05-14T04:51:40.768Z,10.00
2023-05-14T04:54:44.296Z,14.65
2023-05-14T04:57:16.353Z,17.50
2023-05-14T04:59:56.249Z,9.70
2023-05-14T05:02:28.173Z,9.50
2023-05-14T05:05:00.666Z,14.07
2023-05-14T05:07:32.709Z,9.65
2023-05-14T05:10:05.273Z,13.38
2023-05-14T05:12:37.484Z,11.88
2023-05-14T05:15:13.688Z,11.88
2023-05-14T05:17:45.894Z,11.38
2023-05-14T05:20:18.572Z,11.27
2023-05-14T05:22:50.689Z,10.50
2023-05-14T05:25:23.548Z,11.68
2023-05-14T05:27:56.480Z,10.15
2023-05-14T05:30:35.137Z,12.10
2023-05-14T05:33:07.929Z,10.60
2023-05-14T05:35:40.835Z,13.32
2023-05-14T05:38:16.026Z,13.60
2023-05-14T05:40:48.651Z,11.32
2023-05-14T05:44:09.139Z,8.93
2023-05-14T05:46:45.043Z,9.00
2023-05-14T05:49:17.153Z,12.52
2023-05-14T05:51:49.830Z,12.80
2023-05-14T05:54:24.446Z,12.13
2023-05-14T05:56:57.171Z,10.35
2023-05-14T05:59:38.429Z,10.73
2023-05-14T06:02:13.777Z,11.40
2023-05-14T06:04:46.026Z,15.40
2023-05-14T06:07:21.470Z,11.30
2023-05-14T06:09:57.273Z,11.73
2023-05-14T06:12:30.479Z,12.82
2023-05-14T06:15:02.670Z,15.25
2023-05-14T06:17:38.044Z,14.23
2023-05-14T06:20:12.468Z,10.80
2023-05-14T06:22:52.856Z,14.90
2023-05-14T06:25:32.448Z,12.48
2023-05-14T06:28:04.927Z,11.25
2023-05-14T06:30:37.142Z,11.13
2023-05-14T06:33:15.506Z,11.23
2023-05-14T06:35:47.551Z,9.68
2023-05-14T06:38:19.993Z,11.18
2023-05-14T06:40:52.234Z,10.30
2023-05-14T06:43:24.966Z,15.07
2023-05-14T06:45:57.397Z,12.68
2023-05-14T06:48:35.617Z,10.02
2023-05-14T06:51:07.874Z,13.45
2023-05-14T06:53:40.652Z,13.00
2023-05-14T06:56:13.764Z,18.15
2023-05-14T06:58:47.822Z,11.27
2023-05-14T07:01:20.804Z,13.27
2023-05-14T07:03:58.220Z,15.85
2023-05-14T07:06:31.311Z,16.60
2023-05-14T07:09:05.488Z,10.82
2023-05-14T07:11:37.849Z,9.95
2023-05-14T07:14:10.326Z,10.77
2023-05-14T07:17:04.131Z,9.48
2023-05-14T07:19:41.441Z,13.55
2023-05-14T07:22:14.551Z,9.85
2023-05-14T07:24:47.333Z,10.40
2023-05-14T07:27:19.854Z,11.13
2023-05-14T07:29:59.962Z,12.57
2023-05-14T07:32:32.155Z,10.65
2023-05-14T07:35:08.773Z,10.93
2023-05-14T07:37:41.255Z,11.88
2023-05-14T07:40:14.703Z,10.27
2023-05-14T07:42:55.775Z,9.93
2023-05-14T07:45:31.618Z,9.20
2023-05-14T07:48:03.874Z,8.23
2023-05-14T07:50:42.110Z,8.25
2023-05-14T07:53:14.318Z,7.18
2023-05-14T07:56:03.008Z,6.47
2023-05-14T07:58:38.400Z,7.97
2023-05-14T08:01:10.992Z,8.52
2023-05-14T08:03:43.224Z,13.18
2023-05-14T08:06:18.923Z,11.13
2023-05-14T08:09:15.272Z,6.50
2023-05-14T08:11:48.200Z,12.10
2023-05-14T08:14:22.234Z,10.02
2023-05-14T08:17:02.562Z,7.53
2023-05-14T08:19:36.962Z,9.25
2023-05-14T08:22:14.800Z,9.60
2023-05-14T08:24:49.304Z,6.65
2023-05-14T08:27:42.817Z,9.82
2023-05-14T08:30:18.457Z,8.75
2023-05-14T08:32:55.165Z,7.38
2023-05-14T08:35:27.655Z,9.73
2023-05-14T08:38:10.654Z,7.32
2023-05-14T08:40:58.541Z,10.63
2023-05-14T08:43:34.758Z,6.25
2023-05-14T08:46:10.535Z,10.95
2023-05-14T08:48:51.807Z,8.10
2023-05-14T08:51:25.494Z,8.90
2023-05-14T08:54:05.846Z,8.95
2023-05-14T08:56:45.688Z,6.95
2023-05-14T08:59:18.481Z,8.13
2023-05-14T09:01:58.072Z,7.25
2023-05-14T09:04:32.230Z,6.07
2023-05-14T09:07:11.859Z,9.60
2023-05-14T09:09:48.914Z,7.20
2023-05-14T09:12:21.054Z,6.80
2023-05-14T09:14:58.524Z,6.80
2023-05-14T09:17:33.530Z,8.70
2023-05-14T09:20:11.471Z,5.00
2023-05-14T09:22:43.659Z,7.32
2023-05-14T09:25:34.652Z,8.98
2023-05-14T09:28:10.993Z,7.22
2023-05-14T09:31:01.775Z,6.35
2023-05-14T09:33:34.571Z,7.05
2023-05-14T09:36:08.073Z,5.88
2023-05-14T09:38:40.823Z,7.68
2023-05-14T09:41:36.913Z,7.30
2023-05-14T09:44:11.296Z,6.60
2023-05-14T09:46:58.449Z,5.78
2023-05-14T09:49:32.434Z,6.60
2023-05-14T09:52:11.322Z,6.28
2023-05-14T09:54:44.999Z,6.97
2023-05-14T09:57:30.993Z,6.93
2023-05-14T10:03:08.598Z,8.07
2023-05-14T10:05:45.718Z,9.10
2023-05-14T10:08:28.086Z,7.53
2023-05-14T10:11:03.031Z,8.63
2023-05-14T10:13:45.828Z,5.88
2023-05-14T10:16:23.858Z,6.82
2023-05-14T10:18:57.935Z,7.75
2023-05-14T10:21:38.558Z,9.52
2023-05-14T10:24:13.550Z,6.53
2023-05-14T10:26:48.592Z,7.88
2023-05-14T10:29:53.038Z,10.50
2023-05-14T10:33:10.019Z,6.28
2023-05-14T10:36:14.810Z,9.38
2023-05-14T10:38:48.280Z,9.30
2023-05-14T10:41:31.080Z,7.88
2023-05-14T10:44:17.471Z,7.32
2023-05-14T10:47:01.325Z,12.98
2023-05-14T10:49:43.473Z,9.32
2023-05-14T10:52:19.868Z,12.73
2023-05-14T10:55:03.374Z,5.35
2023-05-14T10:57:37.398Z,6.40
2023-05-14T11:00:17.541Z,6.97
2023-05-14T11:02:52.821Z,7.35
2023-05-14T11:05:28.253Z,9.07
2023-05-14T11:08:12.052Z,8.32
2023-05-14T11:10:49.218Z,7.15
2023-05-14T11:13:44.694Z,7.90
2023-05-14T11:16:23.811Z,8.93
2023-05-14T11:19:11.090Z,9.30
2023-05-14T11:21:45.449Z,7.78
2023-05-14T11:24:18.559Z,19.27
2023-05-14T12:13:38.663Z,9.20
2023-05-14T12:16:37.621Z,8.23
2023-05-14T12:19:26.922Z,7.53
2023-05-14T12:22:05.900Z,8.32
2023-05-14T12:31:15.428Z,9.43
2023-05-14T12:34:04.961Z,9.23
2023-05-14T12:36:44.728Z,6.28
2023-05-14T12:39:40.304Z,11.25
2023-05-14T12:42:12.748Z,13.30
2023-05-14T12:44:49.389Z,24.65
2023-05-14T12:47:35.358Z,27.92
2023-05-14T12:57:31.943Z,10.88
2023-05-14T13:04:16.082Z,8.82
2023-05-14T13:06:49.048Z,10.32
2023-05-14T13:09:23.436Z,8.40
2023-05-14T13:12:09.549Z,7.32
2023-05-14T13:14:42.271Z,9.23
2023-05-14T13:17:18.538Z,6.47
2023-05-14T13:19:57.223Z,8.20
2023-05-14T13:22:29.585Z,9.68
2023-05-14T13:25:02.291Z,6.25
2023-05-14T13:27:36.136Z,7.07
2023-05-14T13:30:08.871Z,8.20
2023-05-14T13:32:42.259Z,8.40
2023-05-14T13:35:17.652Z,9.77
2023-05-14T13:37:50.655Z,7.10
2023-05-14T13:40:25.890Z,8.32
2023-05-14T13:43:00.310Z,10.85
2023-05-14T13:45:35.622Z,9.10
2023-05-14T13:51:21.294Z,13.27
2023-05-14T13:56:46.837Z,11.90
2023-05-14T13:59:19.149Z,7.53
2023-05-14T14:01:52.030Z,8.35
2023-05-14T14:07:17.588Z,11.60
2023-05-14T14:09:49.453Z,6.45
2023-05-14T14:12:22.106Z,8.60
2023-05-14T14:14:54.424Z,9.27
2023-05-14T14:17:26.917Z,10.13
2023-05-14T14:20:11.525Z,28.40
2023-05-14T14:22:51.071Z,24.73
2023-05-14T14:25:24.041Z,8.07
2023-05-14T14:27:56.690Z,8.93
2023-05-14T14:30:28.697Z,11.07
2023-05-14T14:33:01.660Z,6.18
2023-05-14T14:35:35.730Z,10.65
2023-05-14T14:38:11.155Z,7.15
2023-05-14T14:40:43.390Z,11.60
2023-05-14T14:43:16.917Z,9.50
2023-05-14T14:45:49.448Z,11.35
2023-05-14T14:48:34.628Z,13.48
2023-05-14T14:51:11.345Z,7.03
2023-05-14T14:53:46.871Z,8.25
2023-05-14T14:56:19.404Z,8.98
2023-05-14T14:58:52.149Z,6.90
2023-05-14T15:01:25.540Z,7.82
2023-05-14T15:03:58.316Z,7.50
2023-05-14T15:06:36.289Z,9.43
2023-05-14T15:09:11.796Z,6.32
2023-05-14T15:11:44.415Z,4.53
2023-05-14T15:14:17.261Z,6.97
2023-05-14T15:16:51.190Z,7.65
2023-05-14T15:19:25.452Z,9.90
2023-05-14T15:21:58.056Z,7.03
2023-05-14T15:24:36.362Z,6.03
2023-05-14T15:27:13.557Z,7.95
2023-05-14T15:29:46.508Z,7.13
2023-05-14T15:32:21.132Z,11.80
2023-05-14T15:34:53.915Z,8.20
2023-05-14T15:37:28.318Z,7.40
2023-05-14T15:40:03.656Z,8.45
2023-05-14T15:42:36.109Z,7.35
2023-05-14T15:45:09.728Z,8.77
2023-05-14T15:47:42.356Z,6.82
2023-05-14T15:50:15.782Z,10.95
2023-05-14T15:52:48.903Z,12.35
2023-05-14T15:55:27.238Z,9.15
2023-05-14T15:57:59.733Z,7.00
2023-05-14T16:00:32.334Z,7.00
2023-05-14T16:03:05.520Z,8.60
2023-05-14T16:05:38.329Z,7.68
2023-05-14T16:08:12.193Z,8.25
2023-05-14T16:10:47.796Z,8.80
2023-05-14T16:13:20.097Z,8.48
2023-05-14T16:16:04.776Z,9.48
2023-05-14T16:18:37.449Z,6.97
2023-05-14T16:21:10.223Z,7.53
2023-05-14T16:23:42.486Z,9.77
2023-05-14T16:26:17.837Z,10.65
2023-05-14T16:28:50.031Z,9.07
2023-05-14T16:31:25.860Z,6.97
2023-05-14T16:33:58.898Z,8.70
2023-05-14T16:36:31.819Z,10.18
2023-05-14T16:39:08.070Z,7.70
2023-05-14T16:41:44.295Z,9.57
2023-05-14T16:44:16.846Z,10.13
2023-05-14T16:46:51.535Z,8.70
2023-05-14T16:49:24.278Z,7.95
2023-05-14T16:51:57.199Z,7.65
2023-05-14T16:54:38.598Z,9.27
2023-05-14T16:57:16.151Z,8.32
2023-05-14T16:59:48.542Z,8.63
2023-05-14T17:02:23.629Z,8.05
2023-05-14T17:04:56.250Z,7.20
2023-05-14T17:07:29.556Z,8.15
2023-05-14T17:10:02.039Z,8.77
2023-05-14T17:12:37.647Z,6.15
2023-05-14T17:15:12.592Z,6.40
2023-05-14T17:17:53.085Z,8.90
2023-05-14T17:20:45.770Z,8.05
2023-05-14T17:23:19.762Z,12.07
2023-05-14T17:25:52.889Z,9.07
2023-05-14T17:28:30.378Z,8.35
2023-05-14T17:31:05.519Z,7.22
2023-05-14T17:33:37.696Z,9.80
2023-05-14T17:36:10.625Z,10.32
2023-05-14T17:38:43.039Z,8.23
2023-05-14T17:41:16.254Z,8.07
2023-05-14T17:53:43.913Z,8.15
2023-05-14T17:56:19.105Z,7.70
2023-05-14T17:58:52.737Z,8.70
2023-05-14T18:04:17.943Z,12.38
2023-05-14T18:06:50.610Z,9.77
2023-05-14T18:09:26.044Z,10.80
2023-05-14T18:12:01.497Z,9.48
2023-05-14T18:14:33.386Z,8.43
2023-05-14T18:17:06.495Z,9.40
2023-05-14T18:19:38.714Z,11.45
2023-05-14T18:22:12.445Z,8.60
2023-05-14T18:24:48.490Z,11.27
2023-05-14T18:27:21.474Z,9.25
2023-05-14T18:29:53.734Z,7.90
2023-05-14T18:32:27.027Z,11.82
2023-05-14T18:35:00.119Z,11.15
2023-05-14T18:37:37.073Z,9.25
2023-05-14T18:40:17.748Z,10.50
2023-05-14T18:42:51.376Z,11.13
2023-05-14T18:49:47.838Z,9.65
2023-05-14T18:52:21.756Z,13.10
2023-05-14T18:54:55.445Z,10.35
2023-05-14T18:57:33.389Z,10.27
2023-05-14T19:00:07.788Z,12.95
2023-05-14T19:02:41.762Z,13.48
2023-05-14T19:05:15.648Z,10.27
2023-05-14T19:07:56.558Z,11.00
2023-05-14T19:10:30.345Z,13.10
2023-05-14T19:13:08.171Z,11.10
2023-05-14T19:15:41.429Z,9.27
2023-05-14T19:18:15.881Z,8.70
2023-05-14T19:20:49.688Z,17.23
2023-05-14T19:23:22.965Z,18.98
2023-05-14T19:25:55.482Z,8.48
2023-05-14T19:28:31.907Z,8.45
2023-05-14T19:31:19.978Z,11.50
2023-05-14T19:33:53.858Z,9.85
2023-05-14T19:36:27.524Z,10.07
2023-05-14T19:39:00.237Z,11.52
2023-05-14T19:41:33.243Z,10.93
2023-05-14T19:44:11.342Z,12.55
2023-05-14T19:46:44.254Z,10.82
2023-05-14T19:49:17.720Z,10.60
2023-05-14T19:51:50.324Z,11.00
2023-05-14T19:54:23.643Z,11.10
2023-05-14T19:56:57.866Z,13.90
2023-05-14T20:02:29.776Z,12.35
2023-05-14T20:05:09.465Z,15.05
2023-05-14T20:07:42.595Z,11.18
2023-05-14T20:10:16.593Z,13.43
2023-05-14T20:12:49.561Z,10.60
2023-05-14T20:15:26.914Z,12.95
2023-05-14T20:18:01.881Z,9.43
2023-05-14T20:20:36.263Z,10.55
2023-05-14T20:23:14.009Z,9.15
2023-05-14T20:25:49.881Z,9.07
2023-05-14T20:28:23.181Z,11.82
2023-05-14T20:31:04.748Z,9.98
2023-05-14T20:33:40.735Z,11.38
2023-05-14T20:36:16.742Z,13.55
2023-05-14T20:38:54.278Z,12.57
2023-05-14T20:41:27.815Z,14.63
2023-05-14T20:44:00.330Z,12.45
2023-05-14T20:46:36.530Z,14.25
2023-05-14T20:49:09.768Z,11.77
2023-05-14T20:51:44.054Z,13.80
2023-05-14T20:54:18.387Z,13.32
2023-05-14T20:57:50.286Z,13.10
2023-05-14T21:00:36.014Z,14.02
2023-05-14T21:03:11.556Z,14.73
2023-05-14T21:05:44.250Z,15.07
2023-05-14T21:08:16.592Z,11.98
2023-05-14T21:10:48.940Z,11.10
2023-05-14T21:13:21.039Z,9.77
2023-05-14T21:15:53.564Z,11.88
2023-05-14T21:18:31.273Z,14.15
2023-05-14T21:21:04.084Z,10.77
2023-05-14T21:23:35.955Z,11.27
2023-05-14T21:26:08.409Z,9.15
2023-05-14T21:28:40.385Z,13.25
2023-05-14T21:31:12.844Z,13.30
2023-05-14T21:33:47.377Z,14.40
2023-05-14T21:36:20.898Z,18.58
2023-05-14T21:38:52.777Z,11.57
2023-05-14T21:41:25.017Z,10.63
2023-05-14T21:43:56.978Z,15.05
2023-05-14T21:46:29.439Z,16.73
2023-05-14T21:49:04.136Z,13.43
2023-05-14T21:51:36.439Z,13.50
2023-05-14T21:54:10.752Z,13.15
2023-05-14T21:56:43.241Z,12.82
2023-05-14T21:59:15.338Z,13.68
2023-05-14T22:02:05.481Z,10.23
2023-05-14T22:04:41.820Z,13.68
2023-05-14T22:07:14.299Z,11.88
2023-05-14T22:09:46.153Z,11.55
2023-05-14T22:12:18.597Z,14.10
2023-05-14T22:14:53.229Z,10.15
2023-05-14T22:17:25.783Z,11.77
2023-05-14T22:20:00.912Z,12.82
2023-05-14T22:22:33.205Z,12.85
2023-05-14T22:25:05.390Z,13.32
2023-05-14T22:27:37.770Z,14.25
2023-05-14T22:30:11.550Z,14.00
2023-05-14T22:32:44.199Z,17.02
2023-05-14T22:35:19.606Z,17.52
2023-05-14T22:37:52.031Z,19.65
2023-05-14T22:40:24.264Z,16.95
2023-05-14T22:42:56.528Z,14.23
2023-05-14T22:45:28.828Z,14.82
2023-05-14T22:48:02.620Z,17.25
2023-05-14T22:50:58.986Z,15.73
2023-05-14T22:53:52.966Z,15.43
2023-05-14T22:56:25.695Z,18.27
2023-05-14T22:59:00.713Z,17.80
2023-05-14T23:01:35.738Z,18.75
2023-05-14T23:04:08.592Z,18.95
2023-05-14T23:09:29.970Z,17.05
2023-05-14T23:12:02.047Z,16.40
2023-05-14T23:14:34.335Z,21.48
2023-05-14T23:17:06.253Z,20.10
2023-05-14T23:19:38.682Z,18.58
2023-05-14T23:22:13.510Z,19.00
2023-05-14T23:24:45.740Z,19.27
2023-05-14T23:27:17.595Z,16.50
2023-05-14T23:29:49.879Z,19.85
2023-05-14T23:32:21.773Z,14.55
2023-05-14T23:34:53.959Z,17.17
2023-05-14T23:37:29.864Z,17.67
2023-05-14T23:40:05.048Z,19.73
2023-05-14T23:42:37.769Z,17.75
2023-05-14T23:45:11.682Z,21.05
2023-05-14T23:47:44.575Z,18.77
2023-05-14T23:50:17.186Z,20.40
2023-05-14T23:52:54.835Z,22.08
2023-05-14T23:55:27.574Z,20.20
2023-05-14T23:57:59.610Z,18.60
